createdAt,value
2019-02-14T02:58:03.279Z,7.80
2019-02-14T03:00:32.536Z,7.13
2019-02-14T03:03:01.741Z,6.90
2019-02-14T03:05:31.008Z,8.93
2019-02-14T03:08:00.232Z,7.37
2019-02-14T03:10:29.491Z,8.67
2019-02-14T03:12:58.842Z,6.90
2019-02-14T03:15:28.255Z,7.73
2019-02-14T03:17:57.688Z,7.07
2019-02-14T03:20:26.923Z,6.87
2019-02-14T03:22:56.253Z,7.17
2019-02-14T03:25:25.526Z,8.40
2019-02-14T03:27:54.813Z,6.97
2019-02-14T03:30:24.227Z,7.07
2019-02-14T03:32:53.452Z,7.23
2019-02-14T03:35:22.625Z,8.47
2019-02-14T03:37:51.836Z,8.00
2019-02-14T03:40:21.125Z,9.60
2019-02-14T03:42:50.542Z,7.30
2019-02-14T03:45:19.827Z,8.07
2019-02-14T03:47:49.065Z,8.13
2019-02-14T03:50:18.355Z,7.50
2019-02-14T03:52:47.695Z,8.90
2019-02-14T03:55:16.938Z,7.30
2019-02-14T03:57:46.197Z,7.17
2019-02-14T04:00:15.930Z,7.53
2019-02-14T04:02:45.149Z,8.50
2019-02-14T04:05:14.345Z,7.93
2019-02-14T04:07:43.615Z,6.80
2019-02-14T04:10:13.123Z,8.43
2019-02-14T04:12:42.351Z,7.87
2019-02-14T04:15:13.298Z,6.33
2019-02-14T04:17:42.602Z,6.77
2019-02-14T04:20:11.785Z,7.47
2019-02-14T04:22:41.006Z,8.73
2019-02-14T04:25:10.356Z,7.40
2019-02-14T04:27:39.635Z,10.20
2019-02-14T04:30:09.987Z,8.10
2019-02-14T04:32:39.270Z,6.40
2019-02-14T04:35:08.642Z,7.47
2019-02-14T04:37:37.956Z,7.97
2019-02-14T04:40:08.635Z,7.53
2019-02-14T04:42:38.057Z,7.23
2019-02-14T04:45:07.340Z,8.77
2019-02-14T04:47:36.504Z,6.93
2019-02-14T04:50:06.070Z,6.53
2019-02-14T04:52:35.261Z,7.83
2019-02-14T04:55:04.663Z,8.07
2019-02-14T04:57:33.899Z,8.43
2019-02-14T05:00:03.122Z,9.70
2019-02-14T05:02:32.436Z,9.03
2019-02-14T05:05:01.652Z,8.80
2019-02-14T05:07:30.998Z,7.50
2019-02-14T05:10:00.403Z,8.47
2019-02-14T05:12:39.609Z,10.80
2019-02-14T05:15:08.901Z,8.60
2019-02-14T05:17:38.297Z,10.63
2019-02-14T05:20:08.432Z,10.70
2019-02-14T05:22:37.915Z,8.57
2019-02-14T05:25:07.512Z,8.73
2019-02-14T05:27:36.672Z,8.10
2019-02-14T05:30:06.128Z,7.30
2019-02-14T05:32:35.310Z,8.03
2019-02-14T05:35:04.608Z,10.17
2019-02-14T05:37:33.873Z,9.87
2019-02-14T05:40:03.054Z,8.47
2019-02-14T05:42:32.171Z,10.27
2019-02-14T05:45:01.240Z,8.77
2019-02-14T05:47:30.334Z,10.27
2019-02-14T05:49:59.432Z,7.23
2019-02-14T05:52:28.690Z,10.67
2019-02-14T05:54:57.720Z,10.43
2019-02-14T05:57:27.415Z,7.73
2019-02-14T05:59:56.737Z,12.00
2019-02-14T06:02:25.837Z,8.73
2019-02-14T06:04:54.976Z,8.93
2019-02-14T06:07:24.102Z,10.17
2019-02-14T06:09:53.187Z,8.70
2019-02-14T06:12:22.292Z,10.80
2019-02-14T06:14:51.574Z,9.77
2019-02-14T06:17:20.684Z,10.13
2019-02-14T06:19:49.781Z,9.33
2019-02-14T06:22:18.920Z,9.10
2019-02-14T06:24:48.029Z,8.67
2019-02-14T06:27:17.180Z,11.33
2019-02-14T06:29:46.320Z,8.93
2019-02-14T06:32:15.389Z,9.40
2019-02-14T06:34:44.612Z,8.77
2019-02-14T06:37:13.725Z,11.03
2019-02-14T06:39:42.904Z,8.93
2019-02-14T06:42:12.840Z,12.43
2019-02-14T06:44:41.919Z,10.00
2019-02-14T06:47:11.248Z,10.40
2019-02-14T06:49:40.413Z,12.17
2019-02-14T06:52:09.763Z,11.67
2019-02-14T06:54:39.018Z,11.47
2019-02-14T06:57:08.236Z,9.17
2019-02-14T06:59:37.436Z,10.17
2019-02-14T07:02:08.445Z,10.57
2019-02-14T07:04:37.671Z,9.80
2019-02-14T07:07:06.874Z,10.53
2019-02-14T07:09:36.098Z,14.80
2019-02-14T07:12:05.296Z,9.43
2019-02-14T07:14:34.814Z,10.27
2019-02-14T07:17:03.964Z,11.93
2019-02-14T07:19:33.189Z,10.63
2019-02-14T07:22:02.619Z,9.03
2019-02-14T07:24:32.071Z,12.00
2019-02-14T07:27:01.300Z,13.70
2019-02-14T07:29:30.500Z,8.23
2019-02-14T07:31:59.674Z,9.00
2019-02-14T07:34:28.995Z,11.90
2019-02-14T07:36:58.293Z,10.87
2019-02-14T07:39:28.150Z,8.73
2019-02-14T07:41:57.642Z,10.17
2019-02-14T07:44:26.986Z,8.40
2019-02-14T07:46:56.134Z,9.40
2019-02-14T07:49:37.471Z,9.47
2019-02-14T07:52:07.147Z,12.47
2019-02-14T07:54:39.729Z,8.87
2019-02-14T08:13:14.418Z,9.00
2019-02-14T08:15:43.620Z,12.10
2019-02-14T08:18:13.333Z,7.63
2019-02-14T08:20:42.973Z,8.83
2019-02-14T08:23:14.278Z,8.80
2019-02-14T08:25:43.830Z,8.47
2019-02-14T08:28:17.529Z,8.17
2019-02-14T08:30:46.812Z,9.03
2019-02-14T08:33:24.647Z,12.13
2019-02-14T08:35:53.956Z,10.60
2019-02-14T08:38:26.236Z,12.43
2019-02-14T08:40:55.458Z,8.03
2019-02-14T08:43:27.787Z,12.80
2019-02-14T08:46:04.577Z,8.90
2019-02-14T08:53:15.506Z,13.60
2019-02-14T08:56:11.611Z,9.77
2019-02-14T09:01:54.846Z,9.93
2019-02-14T09:04:24.223Z,9.80
2019-02-14T09:06:53.505Z,13.60
2019-02-14T09:09:22.643Z,12.50
2019-02-14T09:11:51.781Z,13.80
2019-02-14T09:17:48.913Z,10.47
2019-02-14T09:20:18.102Z,9.80
2019-02-14T09:22:47.138Z,9.63
2019-02-14T09:25:16.392Z,10.90
2019-02-14T09:27:45.506Z,9.70
2019-02-14T09:30:14.797Z,9.53
2019-02-14T09:32:43.937Z,10.63
2019-02-14T09:35:13.185Z,17.80
2019-02-14T09:37:42.276Z,12.97
2019-02-14T09:40:12.262Z,11.00
2019-02-14T09:42:42.137Z,11.30
2019-02-14T09:45:11.628Z,10.30
2019-02-14T09:47:40.640Z,11.00
2019-02-14T09:50:10.589Z,14.00
2019-02-14T09:52:39.825Z,13.00
2019-02-14T09:55:09.266Z,14.50
2019-02-14T09:57:38.366Z,12.40
2019-02-14T10:00:09.863Z,15.23
2019-02-14T10:02:39.417Z,13.13
2019-02-14T10:05:08.952Z,11.93
2019-02-14T10:07:38.192Z,12.17
2019-02-14T10:10:09.269Z,12.90
2019-02-14T10:12:38.570Z,11.90
2019-02-14T10:15:08.190Z,13.40
2019-02-14T10:17:37.273Z,11.80
2019-02-14T10:20:07.663Z,12.57
2019-02-14T10:22:36.820Z,12.87
2019-02-14T10:25:06.943Z,16.00
2019-02-14T10:27:36.169Z,11.27
2019-02-14T10:30:06.862Z,12.37
2019-02-14T10:32:35.965Z,13.40
2019-02-14T10:35:05.058Z,11.17
2019-02-14T10:37:34.147Z,18.37
2019-02-14T10:40:03.207Z,11.03
2019-02-14T10:42:32.531Z,13.90
2019-02-14T10:45:01.653Z,11.87
2019-02-14T10:47:30.703Z,9.20
2019-02-14T10:49:59.824Z,10.72
2019-02-14T10:52:28.935Z,9.78
2019-02-14T10:54:58.108Z,8.63
2019-02-14T10:57:27.201Z,5.75
2019-02-14T10:59:56.316Z,4.85
2019-02-14T11:02:25.440Z,3.62
2019-02-14T11:04:54.645Z,3.42
2019-02-14T11:07:23.745Z,3.05
2019-02-14T11:09:52.831Z,1.77
2019-02-14T11:12:21.967Z,1.45
2019-02-14T11:14:50.983Z,3.72
2019-02-14T11:17:20.072Z,1.67
2019-02-14T11:19:49.155Z,1.52
2019-02-14T11:22:18.343Z,2.12
2019-02-14T11:24:47.639Z,2.70
2019-02-14T11:27:16.804Z,2.80
2019-02-14T11:29:45.894Z,2.62
2019-02-14T11:32:15.031Z,1.77
2019-02-14T11:34:44.107Z,2.10
2019-02-14T11:37:13.262Z,1.20
2019-02-14T11:39:42.402Z,3.30
2019-02-14T11:42:11.492Z,1.98
2019-02-14T11:44:40.493Z,1.27
2019-02-14T11:47:09.555Z,1.00
2019-02-14T11:49:38.590Z,1.87
2019-02-14T11:52:07.679Z,1.72
2019-02-14T11:54:36.776Z,2.10
2019-02-14T11:57:10.540Z,2.22
2019-02-14T11:59:40.578Z,2.90
2019-02-14T12:02:09.660Z,1.50
2019-02-14T12:04:38.662Z,4.67
2019-02-14T12:07:07.790Z,2.05
2019-02-14T12:09:36.933Z,1.80
2019-02-14T12:12:06.101Z,1.40
2019-02-14T12:14:35.231Z,3.40
2019-02-14T12:17:04.836Z,1.87
2019-02-14T12:19:33.953Z,1.80
2019-02-14T12:22:03.028Z,3.42
2019-02-14T12:24:32.109Z,7.28
2019-02-14T12:27:01.240Z,3.52
2019-02-14T12:29:30.379Z,2.12
2019-02-14T12:31:59.430Z,1.55
2019-02-14T12:34:28.507Z,1.10
2019-02-14T12:36:57.600Z,1.92
2019-02-14T12:39:26.738Z,5.00
2019-02-14T12:41:55.803Z,1.57
2019-02-14T12:44:24.765Z,1.27
2019-02-14T12:46:53.842Z,1.22
2019-02-14T12:49:22.887Z,1.30
2019-02-14T12:51:51.943Z,1.55
2019-02-14T12:54:21.035Z,1.92
2019-02-14T12:56:50.167Z,2.98
2019-02-14T12:59:19.234Z,0.98
2019-02-14T13:01:48.565Z,0.80
2019-02-14T13:04:17.812Z,0.80
2019-02-14T13:06:47.085Z,1.05
2019-02-14T13:09:20.040Z,1.15
2019-02-14T13:11:47.005Z,1.77
2019-02-14T13:14:16.048Z,1.80
2019-02-14T13:16:45.226Z,1.27
2019-02-14T13:19:14.283Z,1.90
2019-02-14T13:21:43.341Z,1.47
2019-02-14T13:24:12.491Z,3.30
2019-02-14T13:26:41.581Z,1.50
2019-02-14T13:29:10.622Z,2.50
2019-02-14T13:31:39.686Z,2.10
2019-02-14T13:34:08.731Z,2.20
2019-02-14T13:36:37.909Z,2.77
2019-02-14T13:39:08.341Z,1.50
2019-02-14T13:41:37.441Z,1.67
2019-02-14T13:44:06.509Z,1.20
2019-02-14T13:46:35.529Z,1.93
2019-02-14T13:49:04.729Z,2.37
2019-02-14T13:51:34.839Z,0.87
2019-02-14T13:54:03.916Z,1.23
2019-02-14T13:56:33.336Z,1.00
2019-02-14T13:59:02.467Z,1.30
2019-02-14T14:01:33.871Z,1.23
2019-02-14T14:04:02.922Z,0.97
2019-02-14T14:06:32.012Z,1.10
2019-02-14T14:09:01.109Z,1.20
2019-02-14T14:11:30.194Z,1.20
2019-02-14T14:13:59.290Z,1.70
2019-02-14T14:16:28.558Z,1.00
2019-02-14T14:19:05.971Z,1.17
2019-02-14T14:21:28.499Z,1.30
2019-02-14T14:23:57.668Z,1.97
2019-02-14T14:26:26.680Z,0.97
2019-02-14T14:28:55.793Z,2.27
2019-02-14T14:31:24.856Z,0.87
2019-02-14T14:33:53.959Z,1.10
2019-02-14T14:36:23.036Z,0.70
2019-02-14T14:38:52.056Z,1.43
2019-02-14T14:41:21.168Z,1.20
2019-02-14T14:44:18.374Z,1.07
2019-02-14T14:46:57.539Z,1.10
2019-02-14T14:49:26.639Z,1.33
2019-02-14T14:51:55.734Z,1.03
2019-02-14T14:54:24.822Z,1.47
2019-02-14T14:56:53.839Z,1.40
2019-02-14T14:59:22.935Z,1.07
2019-02-14T15:01:52.070Z,0.70
2019-02-14T15:04:21.244Z,0.93
2019-02-14T15:06:50.255Z,4.73
2019-02-14T15:09:19.287Z,1.27
2019-02-14T15:11:48.318Z,0.60
2019-02-14T15:14:17.481Z,0.70
2019-02-14T15:16:46.565Z,1.20
2019-02-14T15:19:15.695Z,0.97
2019-02-14T15:21:44.747Z,1.67
2019-02-14T15:24:13.956Z,0.80
2019-02-14T15:26:43.103Z,1.03
2019-02-14T15:29:12.202Z,1.30
2019-02-14T15:31:41.251Z,1.90
2019-02-14T15:34:10.379Z,0.90
2019-02-14T15:36:39.719Z,1.10
2019-02-14T15:39:08.922Z,1.93
2019-02-14T15:41:38.078Z,1.20
2019-02-14T15:44:07.579Z,0.80
2019-02-14T15:46:40.051Z,0.97
2019-02-14T15:49:09.206Z,1.23
2019-02-14T15:51:41.982Z,0.93
2019-02-14T15:54:11.944Z,1.80
2019-02-14T15:56:41.026Z,1.40
2019-02-14T15:59:10.074Z,1.50
2019-02-14T16:01:39.686Z,1.23
2019-02-14T16:04:09.433Z,2.27
2019-02-14T16:06:38.737Z,4.13
2019-02-14T16:09:07.872Z,0.93
2019-02-14T16:11:38.731Z,1.00
2019-02-14T16:14:07.921Z,1.97
2019-02-14T16:16:36.944Z,1.30
2019-02-14T16:19:06.139Z,2.93
2019-02-14T16:21:35.192Z,1.63
2019-02-14T16:24:04.308Z,1.90
2019-02-14T16:26:35.288Z,1.77
2019-02-14T16:29:04.243Z,1.33
2019-02-14T16:31:33.314Z,3.90
2019-02-14T16:34:02.381Z,2.33
2019-02-14T16:36:32.632Z,5.67
2019-02-14T16:39:01.902Z,1.97
2019-02-14T16:41:30.953Z,6.53
2019-02-14T16:44:00.297Z,4.53
2019-02-14T16:46:29.328Z,2.60
2019-02-14T16:48:58.465Z,4.10
2019-02-14T16:51:27.538Z,3.60
2019-02-14T16:53:56.599Z,3.90
2019-02-14T16:56:26.110Z,3.33
2019-02-14T16:58:55.461Z,2.60
2019-02-14T17:01:24.514Z,3.10
2019-02-14T17:03:53.735Z,3.30
2019-02-14T17:06:22.785Z,3.77
2019-02-14T17:08:51.868Z,3.20
2019-02-14T17:11:20.974Z,4.67
2019-02-14T17:13:50.173Z,3.70
2019-02-14T17:16:19.247Z,6.70
2019-02-14T17:18:48.279Z,4.30
2019-02-14T17:21:17.542Z,3.20
2019-02-14T17:23:46.659Z,6.03
2019-02-14T17:26:15.797Z,3.63
2019-02-14T17:28:44.809Z,5.57
2019-02-14T17:31:13.885Z,5.30
2019-02-14T17:33:46.710Z,5.17
2019-02-14T17:36:15.997Z,4.23
2019-02-14T17:38:45.096Z,5.27
2019-02-14T17:41:14.700Z,7.10
2019-02-14T17:43:43.773Z,5.93
2019-02-14T17:46:12.849Z,3.77
2019-02-14T17:48:41.918Z,3.67
2019-02-14T17:51:11.803Z,5.23
2019-02-14T17:53:40.933Z,6.57
2019-02-14T17:56:10.019Z,5.07
2019-02-14T17:58:39.169Z,8.80
2019-02-14T18:01:08.246Z,6.80
2019-02-14T18:03:37.342Z,3.17
2019-02-14T18:06:08.498Z,4.97
2019-02-14T18:08:37.390Z,6.07
2019-02-14T18:11:06.499Z,4.63
2019-02-14T18:13:35.721Z,4.93
2019-02-14T18:16:04.944Z,10.17
2019-02-14T18:18:34.062Z,6.47
2019-02-14T18:21:03.239Z,5.33
2019-02-14T18:23:32.429Z,4.67
2019-02-14T18:26:01.553Z,6.57
2019-02-14T18:28:30.754Z,8.43
2019-02-14T18:30:59.897Z,5.43
2019-02-14T18:33:28.988Z,7.67
2019-02-14T18:35:58.179Z,4.83
2019-02-14T18:38:27.313Z,7.83
2019-02-14T18:41:03.857Z,8.13
2019-02-14T18:43:27.431Z,13.43
2019-02-14T18:45:56.582Z,5.63
2019-02-14T18:48:25.750Z,5.47
2019-02-14T18:50:55.023Z,9.10
2019-02-14T18:53:24.117Z,14.77
2019-02-14T18:55:53.348Z,6.60
2019-02-14T18:58:26.443Z,7.17
2019-02-14T19:00:53.498Z,7.67
2019-02-14T19:03:22.635Z,6.80
2019-02-14T19:05:52.033Z,10.57
2019-02-14T19:08:21.259Z,9.73
2019-02-14T19:10:50.316Z,7.67
2019-02-14T19:13:19.487Z,13.53
2019-02-14T19:15:49.473Z,5.93
2019-02-14T19:18:18.542Z,6.73
2019-02-14T19:20:47.785Z,9.33
2019-02-14T19:23:24.074Z,7.73
2019-02-14T19:25:47.819Z,7.13
2019-02-14T19:28:17.014Z,8.47
2019-02-14T19:30:46.182Z,5.70
2019-02-14T19:33:15.294Z,5.83
2019-02-14T19:35:44.392Z,8.43
2019-02-14T19:38:13.509Z,5.37
2019-02-14T19:40:42.590Z,6.53
2019-02-14T19:43:11.731Z,8.43
2019-02-14T19:45:40.777Z,8.43
2019-02-14T19:48:09.875Z,5.73
2019-02-14T19:50:38.976Z,6.47
2019-02-14T19:53:11.112Z,8.40
2019-02-14T19:55:40.176Z,8.13
2019-02-14T19:58:09.230Z,7.03
2019-02-14T20:00:38.293Z,9.67
2019-02-14T20:03:07.332Z,6.07
2019-02-14T20:05:36.354Z,8.30
2019-02-14T20:08:05.487Z,11.30
2019-02-14T20:10:34.589Z,6.27
2019-02-14T20:13:03.675Z,7.13
2019-02-14T20:15:37.387Z,9.10
2019-02-14T20:18:03.601Z,9.80
2019-02-14T20:20:32.672Z,5.57
2019-02-14T20:23:01.740Z,6.80
2019-02-14T20:25:30.816Z,6.97
2019-02-14T20:27:59.908Z,6.07
2019-02-14T20:30:28.959Z,9.57
2019-02-14T20:33:04.511Z,13.63
2019-02-14T20:35:28.862Z,8.23
2019-02-14T20:37:57.990Z,8.30
2019-02-14T20:40:27.066Z,6.27
2019-02-14T20:42:56.128Z,7.10
2019-02-14T20:45:25.208Z,7.77
2019-02-14T20:47:57.006Z,8.87
2019-02-14T20:50:25.065Z,6.63
2019-02-14T20:52:54.149Z,10.80
2019-02-14T20:55:23.194Z,7.83
2019-02-14T20:57:52.280Z,7.57
2019-02-14T21:00:32.579Z,5.97
2019-02-14T21:03:01.734Z,7.80
2019-02-14T21:05:31.054Z,4.87
2019-02-14T21:08:00.196Z,8.87
2019-02-14T21:10:29.284Z,6.23
2019-02-14T21:12:58.650Z,6.63
2019-02-14T21:15:27.909Z,6.33
2019-02-14T21:18:04.959Z,8.50
2019-02-14T21:20:34.275Z,6.23
2019-02-14T21:23:03.460Z,7.60
2019-02-14T21:25:33.082Z,8.13
2019-02-14T21:28:02.206Z,7.37
2019-02-14T21:30:35.401Z,7.93
2019-02-14T21:33:02.619Z,9.20
2019-02-14T21:35:32.066Z,10.77
2019-02-14T21:38:01.232Z,11.13
2019-02-14T21:40:30.528Z,8.37
2019-02-14T21:42:59.888Z,10.03
2019-02-14T21:45:29.454Z,20.80
2019-02-14T21:47:58.759Z,10.50
2019-02-14T21:50:28.155Z,8.27
2019-02-14T21:52:57.505Z,7.27
2019-02-14T21:55:26.665Z,9.53
2019-02-14T21:57:56.004Z,7.33
2019-02-14T22:00:25.473Z,12.63
2019-02-14T22:02:54.690Z,9.13
2019-02-14T22:05:26.123Z,6.70
2019-02-14T22:07:55.229Z,8.73
2019-02-14T22:10:24.393Z,7.43
2019-02-14T22:12:53.898Z,8.03
2019-02-14T22:15:23.069Z,6.87
2019-02-14T22:17:52.410Z,6.50
2019-02-14T22:20:21.783Z,6.40
2019-02-14T22:22:51.057Z,6.97
2019-02-14T22:25:20.723Z,7.43
2019-02-14T22:27:49.929Z,11.70
2019-02-14T22:30:19.224Z,5.80
2019-02-14T22:32:48.519Z,8.80
2019-02-14T22:35:17.931Z,6.10
2019-02-14T22:37:47.216Z,7.77
2019-02-14T22:40:16.411Z,6.47
2019-02-14T22:42:47.530Z,8.20
2019-02-14T22:45:16.805Z,7.50
2019-02-14T22:47:45.947Z,7.47
2019-02-14T22:50:15.341Z,8.03
2019-02-14T22:52:44.658Z,7.40
2019-02-14T22:55:13.895Z,7.43
2019-02-14T22:57:43.001Z,6.33
2019-02-14T23:00:34.295Z,7.53
2019-02-14T23:03:03.660Z,7.60
2019-02-14T23:05:33.196Z,6.57
2019-02-14T23:08:03.614Z,5.67
2019-02-14T23:10:32.880Z,5.90
2019-02-14T23:13:02.210Z,7.40
2019-02-14T23:15:31.383Z,6.10
2019-02-14T23:18:00.668Z,5.93
2019-02-14T23:20:31.355Z,7.07
2019-02-14T23:23:00.723Z,5.67
2019-02-14T23:25:29.931Z,6.17
2019-02-14T23:32:46.350Z,7.03
2019-02-14T23:35:49.009Z,5.30
2019-02-14T23:38:36.450Z,6.20
2019-02-14T23:41:46.123Z,6.60
